Terminal Aerodrome Forecast
Issued by NWS Cleveland, OH

Home | Current Version | Previous Version | Graphics & Text | Print | Product List | Glossary On
Versions: 1 2 3 4 5 6 7 8 9 10 11 12 13 14 15 16 17 18 19 20
000
FTUS41 KCLE 041100
TAFMFD
TAF
KMFD 041127Z 0412/0512 18008KT P6SM FEW100 SCT250
     FM041400 20012G20KT P6SM SCT050 BKN100
     FM042100 21015G25KT P6SM VCTS OVC050CB
      TEMPO 0423/0501 1 1/2SM -TSRA BR BKN025CB OVC035
     FM050300 22008KT P6SM VCSH SCT025 OVC035=

USA.gov is the U.S. government's official web portal to all federal, state and local government web resources and services.